sensor_id;sensor_type;location;lat;lon;timestamp;temperature;humidity
19868;DHT22;10096;51.112;6.776;2023-02-01T00:01:09;7.30;99.90
19868;DHT22;10096;51.112;6.776;2023-02-01T00:03:36;7.30;99.90
19868;DHT22;10096;51.112;6.776;2023-02-01T00:06:03;7.30;99.90
19868;DHT22;10096;51.112;6.776;2023-02-01T00:08:30;7.60;99.90
19868;DHT22;10096;51.112;6.776;2023-02-01T00:10:59;7.60;99.90
19868;DHT22;10096;51.112;6.776;2023-02-01T00:13:28;7.70;99.90
19868;DHT22;10096;51.112;6.776;2023-02-01T00:16:02;7.60;59.30
19868;DHT22;10096;51.112;6.776;2023-02-01T00:18:29;7.60;20.80
19868;DHT22;10096;51.112;6.776;2023-02-01T00:20:56;7.60;21.70
19868;DHT22;10096;51.112;6.776;2023-02-01T00:23:23;7.60;77.90
19868;DHT22;10096;51.112;6.776;2023-02-01T00:25:50;7.50;1.00
19868;DHT22;10096;51.112;6.776;2023-02-01T00:28:19;7.50;1.00
19868;DHT22;10096;51.112;6.776;2023-02-01T00:30:46;7.50;1.00
19868;DHT22;10096;51.112;6.776;2023-02-01T00:33:13;7.50;1.00
19868;DHT22;10096;51.112;6.776;2023-02-01T00:35:39;7.50;1.00
19868;DHT22;10096;51.112;6.776;2023-02-01T00:38:06;7.70;1.00
19868;DHT22;10096;51.112;6.776;2023-02-01T00:40:33;7.50;1.00
19868;DHT22;10096;51.112;6.776;2023-02-01T00:43:00;7.50;1.00
19868;DHT22;10096;51.112;6.776;2023-02-01T00:45:28;7.50;1.00
19868;DHT22;10096;51.112;6.776;2023-02-01T00:47:55;7.70;1.00
19868;DHT22;10096;51.112;6.776;2023-02-01T00:50:22;7.40;1.00
19868;DHT22;10096;51.112;6.776;2023-02-01T00:52:49;7.20;99.90
19868;DHT22;10096;51.112;6.776;2023-02-01T00:55:16;7.20;1.00
19868;DHT22;10096;51.112;6.776;2023-02-01T00:57:43;7.10;99.90
19868;DHT22;10096;51.112;6.776;2023-02-01T01:00:10;7.00;99.90
19868;DHT22;10096;51.112;6.776;2023-02-01T01:02:39;6.90;99.90
19868;DHT22;10096;51.112;6.776;2023-02-01T01:05:06;6.80;99.90
19868;DHT22;10096;51.112;6.776;2023-02-01T01:07:33;6.80;99.90
19868;DHT22;10096;51.112;6.776;2023-02-01T01:10:00;6.80;99.90
19868;DHT22;10096;51.112;6.776;2023-02-01T01:12:27;6.80;99.90
19868;DHT22;10096;51.112;6.776;2023-02-01T01:14:54;6.90;99.90
19868;DHT22;10096;51.112;6.776;2023-02-01T01:17:20;6.80;99.90
19868;DHT22;10096;51.112;6.776;2023-02-01T01:19:49;6.60;99.90
19868;DHT22;10096;51.112;6.776;2023-02-01T01:22:16;6.80;99.90
19868;DHT22;10096;51.112;6.776;2023-02-01T01:24:43;6.70;99.90
19868;DHT22;10096;51.112;6.776;2023-02-01T01:27:10;6.70;99.90
19868;DHT22;10096;51.112;6.776;2023-02-01T01:29:37;6.80;99.90
19868;DHT22;10096;51.112;6.776;2023-02-01T01:32:04;6.90;99.90
19868;DHT22;10096;51.112;6.776;2023-02-01T01:34:31;6.80;99.90
19868;DHT22;10096;51.112;6.776;2023-02-01T01:36:59;6.90;83.70
19868;DHT22;10096;51.112;6.776;2023-02-01T01:39:26;6.80;48.70
19868;DHT22;10096;51.112;6.776;2023-02-01T01:41:53;7.00;51.70
19868;DHT22;10096;51.112;6.776;2023-02-01T01:44:58;6.80;22.80
19868;DHT22;10096;51.112;6.776;2023-02-01T01:47:25;6.70;5.90
19868;DHT22;10096;51.112;6.776;2023-02-01T01:49:53;6.60;38.00
19868;DHT22;10096;51.112;6.776;2023-02-01T01:52:22;6.60;27.70
19868;DHT22;10096;51.112;6.776;2023-02-01T01:54:51;6.50;35.50
19868;DHT22;10096;51.112;6.776;2023-02-01T01:57:23;6.50;63.10
19868;DHT22;10096;51.112;6.776;2023-02-01T01:59:59;6.70;44.20
19868;DHT22;10096;51.112;6.776;2023-02-01T02:02:28;6.70;33.00
19868;DHT22;10096;51.112;6.776;2023-02-01T02:04:55;6.50;22.40
19868;DHT22;10096;51.112;6.776;2023-02-01T02:07:28;6.70;25.70
19868;DHT22;10096;51.112;6.776;2023-02-01T02:09:56;6.70;12.40
19868;DHT22;10096;51.112;6.776;2023-02-01T02:12:23;6.60;12.70
19868;DHT22;10096;51.112;6.776;2023-02-01T02:14:50;6.60;20.10
19868;DHT22;10096;51.112;6.776;2023-02-01T02:17:30;6.60;25.30
19868;DHT22;10096;51.112;6.776;2023-02-01T02:20:28;6.80;20.90
19868;DHT22;10096;51.112;6.776;2023-02-01T02:23:20;6.70;1.00
19868;DHT22;10096;51.112;6.776;2023-02-01T02:35:17;6.60;1.00
19868;DHT22;10096;51.112;6.776;2023-02-01T02:37:52;6.60;4.50
19868;DHT22;10096;51.112;6.776;2023-02-01T02:40:25;6.50;21.50
19868;DHT22;10096;51.112;6.776;2023-02-01T02:43:04;6.50;15.70
19868;DHT22;10096;51.112;6.776;2023-02-01T02:45:55;6.60;4.90
19868;DHT22;10096;51.112;6.776;2023-02-01T02:48:44;6.50;26.40
19868;DHT22;10096;51.112;6.776;2023-02-01T02:51:19;6.50;20.00
19868;DHT22;10096;51.112;6.776;2023-02-01T02:54:08;6.60;1.00
19868;DHT22;10096;51.112;6.776;2023-02-01T02:56:56;6.60;1.00
19868;DHT22;10096;51.112;6.776;2023-02-01T02:59:43;6.50;1.00
19868;DHT22;10096;51.112;6.776;2023-02-01T03:02:29;6.40;1.00
19868;DHT22;10096;51.112;6.776;2023-02-01T03:05:14;6.40;1.00
19868;DHT22;10096;51.112;6.776;2023-02-01T03:07:56;6.30;15.10
19868;DHT22;10096;51.112;6.776;2023-02-01T03:10:28;6.30;38.60
19868;DHT22;10096;51.112;6.776;2023-02-01T03:13:02;6.20;45.90
19868;DHT22;10096;51.112;6.776;2023-02-01T03:15:33;6.30;89.30
19868;DHT22;10096;51.112;6.776;2023-02-01T03:18:03;6.10;99.90
19868;DHT22;10096;51.112;6.776;2023-02-01T03:20:32;6.10;99.90
19868;DHT22;10096;51.112;6.776;2023-02-01T03:23:03;6.10;99.90
19868;DHT22;10096;51.112;6.776;2023-02-01T03:25:32;6.20;99.90
19868;DHT22;10096;51.112;6.776;2023-02-01T03:28:02;6.10;99.90
19868;DHT22;10096;51.112;6.776;2023-02-01T03:30:31;6.10;99.90
19868;DHT22;10096;51.112;6.776;2023-02-01T03:33:04;6.10;99.90
19868;DHT22;10096;51.112;6.776;2023-02-01T03:35:43;6.10;99.90
19868;DHT22;10096;51.112;6.776;2023-02-01T03:38:18;6.10;99.90
19868;DHT22;10096;51.112;6.776;2023-02-01T03:40:50;6.30;99.90
19868;DHT22;10096;51.112;6.776;2023-02-01T03:43:19;6.40;99.90
19868;DHT22;10096;51.112;6.776;2023-02-01T03:45:50;6.30;99.00
19868;DHT22;10096;51.112;6.776;2023-02-01T03:48:22;6.50;70.00
19868;DHT22;10096;51.112;6.776;2023-02-01T03:50:54;6.50;34.20
19868;DHT22;10096;51.112;6.776;2023-02-01T03:53:24;6.60;4.90
19868;DHT22;10096;51.112;6.776;2023-02-01T03:55:53;6.60;1.00
19868;DHT22;10096;51.112;6.776;2023-02-01T03:58:22;6.80;1.00
19868;DHT22;10096;51.112;6.776;2023-02-01T04:00:51;6.90;1.00
19868;DHT22;10096;51.112;6.776;2023-02-01T04:03:19;6.80;1.00
19868;DHT22;10096;51.112;6.776;2023-02-01T04:05:47;6.90;1.00
19868;DHT22;10096;51.112;6.776;2023-02-01T04:08:13;6.90;1.00
19868;DHT22;10096;51.112;6.776;2023-02-01T04:10:42;7.00;1.00
19868;DHT22;10096;51.112;6.776;2023-02-01T04:13:09;7.00;1.00
19868;DHT22;10096;51.112;6.776;2023-02-01T04:15:36;7.20;1.00
19868;DHT22;10096;51.112;6.776;2023-02-01T04:18:03;7.20;1.00
19868;DHT22;10096;51.112;6.776;2023-02-01T04:20:31;7.00;1.00
19868;DHT22;10096;51.112;6.776;2023-02-01T04:22:58;7.20;1.00
19868;DHT22;10096;51.112;6.776;2023-02-01T04:25:27;7.00;1.00
19868;DHT22;10096;51.112;6.776;2023-02-01T04:27:56;7.00;1.00
19868;DHT22;10096;51.112;6.776;2023-02-01T04:30:22;7.00;1.00
19868;DHT22;10096;51.112;6.776;2023-02-01T04:32:50;7.00;1.00
19868;DHT22;10096;51.112;6.776;2023-02-01T04:35:17;6.90;1.00
19868;DHT22;10096;51.112;6.776;2023-02-01T04:37:44;6.60;1.00
19868;DHT22;10096;51.112;6.776;2023-02-01T04:40:11;6.70;1.00
19868;DHT22;10096;51.112;6.776;2023-02-01T04:42:38;6.40;1.00
19868;DHT22;10096;51.112;6.776;2023-02-01T04:45:08;6.30;1.00
19868;DHT22;10096;51.112;6.776;2023-02-01T04:47:35;6.30;1.00
19868;DHT22;10096;51.112;6.776;2023-02-01T04:50:02;6.20;1.00
19868;DHT22;10096;51.112;6.776;2023-02-01T04:52:29;6.30;5.20
19868;DHT22;10096;51.112;6.776;2023-02-01T04:54:56;6.20;1.00
19868;DHT22;10096;51.112;6.776;2023-02-01T04:57:25;6.20;14.60
19868;DHT22;10096;51.112;6.776;2023-02-01T04:59:53;6.10;8.80
19868;DHT22;10096;51.112;6.776;2023-02-01T05:02:22;6.00;29.10
19868;DHT22;10096;51.112;6.776;2023-02-01T05:04:49;6.00;28.10
19868;DHT22;10096;51.112;6.776;2023-02-01T05:07:16;6.10;22.10
19868;DHT22;10096;51.112;6.776;2023-02-01T05:09:43;6.30;21.90
19868;DHT22;10096;51.112;6.776;2023-02-01T05:12:10;6.20;25.60
19868;DHT22;10096;51.112;6.776;2023-02-01T05:14:57;6.00;6.20
19868;DHT22;10096;51.112;6.776;2023-02-01T05:17:25;6.10;6.20
19868;DHT22;10096;51.112;6.776;2023-02-01T05:19:52;6.00;13.70
19868;DHT22;10096;51.112;6.776;2023-02-01T05:22:19;6.20;34.40
19868;DHT22;10096;51.112;6.776;2023-02-01T05:24:46;5.90;22.50
19868;DHT22;10096;51.112;6.776;2023-02-01T05:27:13;6.00;26.50
19868;DHT22;10096;51.112;6.776;2023-02-01T05:29:40;5.90;23.60
19868;DHT22;10096;51.112;6.776;2023-02-01T05:32:09;5.90;25.20
19868;DHT22;10096;51.112;6.776;2023-02-01T05:34:38;5.80;18.00
19868;DHT22;10096;51.112;6.776;2023-02-01T05:37:05;5.90;33.80
19868;DHT22;10096;51.112;6.776;2023-02-01T05:39:32;6.10;24.30
19868;DHT22;10096;51.112;6.776;2023-02-01T05:41:59;5.90;8.50
19868;DHT22;10096;51.112;6.776;2023-02-01T05:44:26;6.10;8.50
19868;DHT22;10096;51.112;6.776;2023-02-01T05:46:53;5.90;6.30
19868;DHT22;10096;51.112;6.776;2023-02-01T05:49:20;5.90;7.90
19868;DHT22;10096;51.112;6.776;2023-02-01T05:51:48;5.90;8.50
19868;DHT22;10096;51.112;6.776;2023-02-01T05:54:15;5.90;1.30
19868;DHT22;10096;51.112;6.776;2023-02-01T05:56:42;5.90;1.00
19868;DHT22;10096;51.112;6.776;2023-02-01T05:59:09;5.90;1.00
19868;DHT22;10096;51.112;6.776;2023-02-01T06:01:36;5.80;1.00
19868;DHT22;10096;51.112;6.776;2023-02-01T06:04:03;5.80;2.50
19868;DHT22;10096;51.112;6.776;2023-02-01T06:06:30;6.00;1.50
19868;DHT22;10096;51.112;6.776;2023-02-01T06:08:59;5.80;10.50
19868;DHT22;10096;51.112;6.776;2023-02-01T06:11:26;5.90;16.20
19868;DHT22;10096;51.112;6.776;2023-02-01T06:13:53;6.00;1.60
19868;DHT22;10096;51.112;6.776;2023-02-01T06:16:20;5.80;1.00
19868;DHT22;10096;51.112;6.776;2023-02-01T06:18:48;5.70;14.50
19868;DHT22;10096;51.112;6.776;2023-02-01T06:21:15;5.90;16.90
19868;DHT22;10096;51.112;6.776;2023-02-01T06:23:49;5.70;15.80
19868;DHT22;10096;51.112;6.776;2023-02-01T06:26:17;5.90;35.10
19868;DHT22;10096;51.112;6.776;2023-02-01T06:28:44;5.90;1.00
19868;DHT22;10096;51.112;6.776;2023-02-01T06:31:11;6.00;1.00
19868;DHT22;10096;51.112;6.776;2023-02-01T06:33:39;6.30;1.00
19868;DHT22;10096;51.112;6.776;2023-02-01T06:36:09;6.40;1.00
19868;DHT22;10096;51.112;6.776;2023-02-01T06:38:36;6.40;1.00
19868;DHT22;10096;51.112;6.776;2023-02-01T06:41:05;6.30;1.00
19868;DHT22;10096;51.112;6.776;2023-02-01T06:43:33;6.40;1.00
19868;DHT22;10096;51.112;6.776;2023-02-01T06:46:01;6.40;1.00
19868;DHT22;10096;51.112;6.776;2023-02-01T06:48:30;6.60;1.00
19868;DHT22;10096;51.112;6.776;2023-02-01T06:50:57;6.50;1.00
19868;DHT22;10096;51.112;6.776;2023-02-01T06:53:23;6.50;1.00
19868;DHT22;10096;51.112;6.776;2023-02-01T06:55:54;6.50;1.00
19868;DHT22;10096;51.112;6.776;2023-02-01T06:58:22;6.50;1.00
19868;DHT22;10096;51.112;6.776;2023-02-01T07:00:50;6.50;1.00
19868;DHT22;10096;51.112;6.776;2023-02-01T07:03:19;6.50;1.00
19868;DHT22;10096;51.112;6.776;2023-02-01T07:05:46;6.80;1.00
19868;DHT22;10096;51.112;6.776;2023-02-01T07:08:13;6.80;1.00
19868;DHT22;10096;51.112;6.776;2023-02-01T07:10:40;6.60;1.00
19868;DHT22;10096;51.112;6.776;2023-02-01T07:13:07;6.60;1.00
19868;DHT22;10096;51.112;6.776;2023-02-01T07:15:34;6.50;1.00
19868;DHT22;10096;51.112;6.776;2023-02-01T07:18:03;6.60;1.00
19868;DHT22;10096;51.112;6.776;2023-02-01T07:20:30;6.60;1.00
19868;DHT22;10096;51.112;6.776;2023-02-01T07:22:57;6.70;1.00
19868;DHT22;10096;51.112;6.776;2023-02-01T07:25:24;6.60;1.00
19868;DHT22;10096;51.112;6.776;2023-02-01T07:27:51;6.70;1.00
19868;DHT22;10096;51.112;6.776;2023-02-01T07:30:18;6.70;1.00
19868;DHT22;10096;51.112;6.776;2023-02-01T07:32:45;7.00;1.00
19868;DHT22;10096;51.112;6.776;2023-02-01T07:35:13;6.60;1.00
19868;DHT22;10096;51.112;6.776;2023-02-01T07:37:40;6.80;1.00
19868;DHT22;10096;51.112;6.776;2023-02-01T07:40:08;6.70;1.00
19868;DHT22;10096;51.112;6.776;2023-02-01T07:42:35;6.70;1.00
19868;DHT22;10096;51.112;6.776;2023-02-01T07:45:03;6.70;1.00
19868;DHT22;10096;51.112;6.776;2023-02-01T07:47:30;6.80;1.00
19868;DHT22;10096;51.112;6.776;2023-02-01T07:49:57;6.70;1.00
19868;DHT22;10096;51.112;6.776;2023-02-01T07:52:27;6.70;1.00
19868;DHT22;10096;51.112;6.776;2023-02-01T07:54:54;6.80;1.00
19868;DHT22;10096;51.112;6.776;2023-02-01T07:57:25;6.70;1.00
19868;DHT22;10096;51.112;6.776;2023-02-01T07:59:53;6.80;1.00
19868;DHT22;10096;51.112;6.776;2023-02-01T08:02:37;6.80;1.00
19868;DHT22;10096;51.112;6.776;2023-02-01T08:05:04;6.90;1.00
19868;DHT22;10096;51.112;6.776;2023-02-01T08:07:33;6.90;1.00
19868;DHT22;10096;51.112;6.776;2023-02-01T08:10:00;6.90;1.00
19868;DHT22;10096;51.112;6.776;2023-02-01T08:12:27;7.00;1.00
19868;DHT22;10096;51.112;6.776;2023-02-01T08:14:54;6.90;1.00
19868;DHT22;10096;51.112;6.776;2023-02-01T08:17:21;6.90;1.00
19868;DHT22;10096;51.112;6.776;2023-02-01T08:19:48;6.80;1.00
19868;DHT22;10096;51.112;6.776;2023-02-01T08:22:15;6.70;1.00
19868;DHT22;10096;51.112;6.776;2023-02-01T08:24:44;7.10;1.00
19868;DHT22;10096;51.112;6.776;2023-02-01T08:27:10;6.90;1.00
19868;DHT22;10096;51.112;6.776;2023-02-01T08:29:38;6.90;1.00
19868;DHT22;10096;51.112;6.776;2023-02-01T08:32:05;6.90;1.00
19868;DHT22;10096;51.112;6.776;2023-02-01T08:34:32;7.10;1.00
19868;DHT22;10096;51.112;6.776;2023-02-01T08:36:59;7.20;1.00
19868;DHT22;10096;51.112;6.776;2023-02-01T08:39:26;7.10;1.00
19868;DHT22;10096;51.112;6.776;2023-02-01T08:41:55;6.90;1.00
19868;DHT22;10096;51.112;6.776;2023-02-01T08:44:39;6.90;1.00
19868;DHT22;10096;51.112;6.776;2023-02-01T08:47:06;7.00;1.00
19868;DHT22;10096;51.112;6.776;2023-02-01T08:49:33;7.00;1.00
19868;DHT22;10096;51.112;6.776;2023-02-01T08:52:00;7.20;1.00
19868;DHT22;10096;51.112;6.776;2023-02-01T08:54:27;7.10;1.00
19868;DHT22;10096;51.112;6.776;2023-02-01T08:56:55;7.30;1.00
19868;DHT22;10096;51.112;6.776;2023-02-01T08:59:22;7.20;1.00
19868;DHT22;10096;51.112;6.776;2023-02-01T09:01:50;7.20;1.00
19868;DHT22;10096;51.112;6.776;2023-02-01T09:04:17;7.30;1.00
19868;DHT22;10096;51.112;6.776;2023-02-01T09:06:44;7.30;1.00
19868;DHT22;10096;51.112;6.776;2023-02-01T09:09:11;7.30;1.00
19868;DHT22;10096;51.112;6.776;2023-02-01T09:11:38;7.50;1.00
19868;DHT22;10096;51.112;6.776;2023-02-01T09:14:06;7.50;1.00
19868;DHT22;10096;51.112;6.776;2023-02-01T09:16:33;7.40;1.00
19868;DHT22;10096;51.112;6.776;2023-02-01T09:19:00;7.40;1.00
19868;DHT22;10096;51.112;6.776;2023-02-01T09:21:27;7.60;1.00
19868;DHT22;10096;51.112;6.776;2023-02-01T09:23:54;7.40;1.00
19868;DHT22;10096;51.112;6.776;2023-02-01T09:26:21;7.30;1.00
19868;DHT22;10096;51.112;6.776;2023-02-01T09:28:48;7.20;1.00
19868;DHT22;10096;51.112;6.776;2023-02-01T09:31:17;7.20;1.00
19868;DHT22;10096;51.112;6.776;2023-02-01T09:33:44;7.30;1.00
19868;DHT22;10096;51.112;6.776;2023-02-01T09:36:11;7.30;1.00
19868;DHT22;10096;51.112;6.776;2023-02-01T09:38:38;7.40;1.00
19868;DHT22;10096;51.112;6.776;2023-02-01T09:41:10;7.50;1.00
19868;DHT22;10096;51.112;6.776;2023-02-01T09:43:53;7.30;1.00
19868;DHT22;10096;51.112;6.776;2023-02-01T09:46:28;7.30;1.00
19868;DHT22;10096;51.112;6.776;2023-02-01T09:49:01;7.50;1.00
19868;DHT22;10096;51.112;6.776;2023-02-01T09:51:33;7.40;1.00
19868;DHT22;10096;51.112;6.776;2023-02-01T09:54:03;7.70;1.00
19868;DHT22;10096;51.112;6.776;2023-02-01T09:56:36;7.70;1.00
19868;DHT22;10096;51.112;6.776;2023-02-01T09:59:16;7.30;1.00
19868;DHT22;10096;51.112;6.776;2023-02-01T10:01:47;7.30;1.00
19868;DHT22;10096;51.112;6.776;2023-02-01T10:04:15;7.30;1.00
19868;DHT22;10096;51.112;6.776;2023-02-01T10:06:57;7.40;1.00
19868;DHT22;10096;51.112;6.776;2023-02-01T10:09:41;7.40;1.00
19868;DHT22;10096;51.112;6.776;2023-02-01T10:12:39;7.80;1.00
19868;DHT22;10096;51.112;6.776;2023-02-01T10:15:39;7.90;1.00
19868;DHT22;10096;51.112;6.776;2023-02-01T10:21:12;8.10;1.00
19868;DHT22;10096;51.112;6.776;2023-02-01T10:24:01;8.10;1.00
19868;DHT22;10096;51.112;6.776;2023-02-01T10:26:33;8.10;1.00
19868;DHT22;10096;51.112;6.776;2023-02-01T10:29:04;8.30;1.00
19868;DHT22;10096;51.112;6.776;2023-02-01T10:31:34;8.40;1.00
19868;DHT22;10096;51.112;6.776;2023-02-01T10:38:04;8.70;1.00
19868;DHT22;10096;51.112;6.776;2023-02-01T10:41:11;8.80;1.00
19868;DHT22;10096;51.112;6.776;2023-02-01T10:43:43;9.00;1.00
19868;DHT22;10096;51.112;6.776;2023-02-01T10:47:15;8.80;1.00
19868;DHT22;10096;51.112;6.776;2023-02-01T10:49:40;8.70;1.00
19868;DHT22;10096;51.112;6.776;2023-02-01T10:52:16;8.80;1.00
19868;DHT22;10096;51.112;6.776;2023-02-01T10:54:44;8.60;1.00
19868;DHT22;10096;51.112;6.776;2023-02-01T10:57:22;8.50;1.00
19868;DHT22;10096;51.112;6.776;2023-02-01T11:00:03;8.60;1.00
19868;DHT22;10096;51.112;6.776;2023-02-01T11:02:32;8.40;1.00
19868;DHT22;10096;51.112;6.776;2023-02-01T11:05:04;8.20;1.00
19868;DHT22;10096;51.112;6.776;2023-02-01T11:07:32;8.20;1.00
19868;DHT22;10096;51.112;6.776;2023-02-01T11:10:00;8.30;1.00
19868;DHT22;10096;51.112;6.776;2023-02-01T11:12:30;8.20;1.00
19868;DHT22;10096;51.112;6.776;2023-02-01T11:15:01;8.30;1.00
19868;DHT22;10096;51.112;6.776;2023-02-01T11:17:33;8.30;1.00
19868;DHT22;10096;51.112;6.776;2023-02-01T11:20:05;8.40;1.00
19868;DHT22;10096;51.112;6.776;2023-02-01T11:22:33;8.40;1.00
19868;DHT22;10096;51.112;6.776;2023-02-01T11:25:01;8.40;1.00
19868;DHT22;10096;51.112;6.776;2023-02-01T11:27:34;8.50;1.00
19868;DHT22;10096;51.112;6.776;2023-02-01T11:30:02;8.70;1.00
19868;DHT22;10096;51.112;6.776;2023-02-01T11:34:36;8.80;1.00
19868;DHT22;10096;51.112;6.776;2023-02-01T11:39:24;8.80;1.00
19868;DHT22;10096;51.112;6.776;2023-02-01T11:41:59;8.70;1.00
19868;DHT22;10096;51.112;6.776;2023-02-01T11:44:34;8.70;1.00
19868;DHT22;10096;51.112;6.776;2023-02-01T11:47:20;8.80;1.00
19868;DHT22;10096;51.112;6.776;2023-02-01T11:49:48;8.50;1.00
19868;DHT22;10096;51.112;6.776;2023-02-01T11:52:21;8.60;1.00
19868;DHT22;10096;51.112;6.776;2023-02-01T11:55:02;8.60;1.00
19868;DHT22;10096;51.112;6.776;2023-02-01T11:57:42;8.60;1.00
19868;DHT22;10096;51.112;6.776;2023-02-01T12:00:27;8.60;1.00
19868;DHT22;10096;51.112;6.776;2023-02-01T12:03:12;8.90;1.00
19868;DHT22;10096;51.112;6.776;2023-02-01T12:05:52;9.00;1.00
19868;DHT22;10096;51.112;6.776;2023-02-01T12:08:52;9.00;1.00
19868;DHT22;10096;51.112;6.776;2023-02-01T12:11:33;9.00;1.00
19868;DHT22;10096;51.112;6.776;2023-02-01T12:14:14;9.00;1.00
19868;DHT22;10096;51.112;6.776;2023-02-01T12:16:56;9.10;1.00
19868;DHT22;10096;51.112;6.776;2023-02-01T12:19:40;9.20;1.00
19868;DHT22;10096;51.112;6.776;2023-02-01T12:22:22;9.20;1.00
19868;DHT22;10096;51.112;6.776;2023-02-01T12:25:05;9.20;1.00
19868;DHT22;10096;51.112;6.776;2023-02-01T12:31:09;9.20;1.00
19868;DHT22;10096;51.112;6.776;2023-02-01T12:33:50;9.10;1.00
19868;DHT22;10096;51.112;6.776;2023-02-01T12:36:22;9.10;1.00
19868;DHT22;10096;51.112;6.776;2023-02-01T12:38:56;8.90;1.00
19868;DHT22;10096;51.112;6.776;2023-02-01T12:41:48;9.00;1.00
19868;DHT22;10096;51.112;6.776;2023-02-01T12:44:27;9.10;1.00
19868;DHT22;10096;51.112;6.776;2023-02-01T12:46:58;9.00;1.00
19868;DHT22;10096;51.112;6.776;2023-02-01T12:49:34;9.10;1.00
19868;DHT22;10096;51.112;6.776;2023-02-01T12:52:09;9.00;1.00
19868;DHT22;10096;51.112;6.776;2023-02-01T12:54:41;9.00;1.00
19868;DHT22;10096;51.112;6.776;2023-02-01T12:57:13;9.10;1.00
19868;DHT22;10096;51.112;6.776;2023-02-01T12:59:50;8.90;1.00
19868;DHT22;10096;51.112;6.776;2023-02-01T13:02:27;9.00;1.00
19868;DHT22;10096;51.112;6.776;2023-02-01T13:04:59;9.10;1.00
19868;DHT22;10096;51.112;6.776;2023-02-01T13:07:34;9.00;1.00
19868;DHT22;10096;51.112;6.776;2023-02-01T13:10:12;9.00;1.00
19868;DHT22;10096;51.112;6.776;2023-02-01T13:12:47;9.00;1.00
19868;DHT22;10096;51.112;6.776;2023-02-01T13:15:19;9.10;1.00
19868;DHT22;10096;51.112;6.776;2023-02-01T13:17:51;9.10;1.00
19868;DHT22;10096;51.112;6.776;2023-02-01T13:20:22;9.00;1.00
19868;DHT22;10096;51.112;6.776;2023-02-01T13:22:54;9.00;1.00
19868;DHT22;10096;51.112;6.776;2023-02-01T13:25:29;9.10;1.00
19868;DHT22;10096;51.112;6.776;2023-02-01T13:28:00;9.10;1.00
19868;DHT22;10096;51.112;6.776;2023-02-01T13:30:45;9.10;1.00
19868;DHT22;10096;51.112;6.776;2023-02-01T13:33:31;8.90;1.00
19868;DHT22;10096;51.112;6.776;2023-02-01T13:36:37;8.90;1.00
19868;DHT22;10096;51.112;6.776;2023-02-01T13:42:17;8.90;1.00
19868;DHT22;10096;51.112;6.776;2023-02-01T13:44:47;9.00;1.00
19868;DHT22;10096;51.112;6.776;2023-02-01T13:47:28;9.10;1.00
19868;DHT22;10096;51.112;6.776;2023-02-01T13:49:59;8.90;1.00
19868;DHT22;10096;51.112;6.776;2023-02-01T13:52:33;8.90;1.00
19868;DHT22;10096;51.112;6.776;2023-02-01T13:57:49;9.10;1.00
19868;DHT22;10096;51.112;6.776;2023-02-01T14:00:25;9.30;1.00
19868;DHT22;10096;51.112;6.776;2023-02-01T14:03:14;9.00;1.00
19868;DHT22;10096;51.112;6.776;2023-02-01T14:06:33;9.00;1.00
19868;DHT22;10096;51.112;6.776;2023-02-01T14:09:17;9.00;1.00
19868;DHT22;10096;51.112;6.776;2023-02-01T14:11:47;9.20;1.00
19868;DHT22;10096;51.112;6.776;2023-02-01T14:14:42;9.10;1.00
19868;DHT22;10096;51.112;6.776;2023-02-01T14:17:34;9.10;1.00
19868;DHT22;10096;51.112;6.776;2023-02-01T14:23:21;9.10;1.00
19868;DHT22;10096;51.112;6.776;2023-02-01T14:26:12;9.10;1.00
19868;DHT22;10096;51.112;6.776;2023-02-01T14:28:44;9.10;1.00
19868;DHT22;10096;51.112;6.776;2023-02-01T14:31:31;9.10;1.00
19868;DHT22;10096;51.112;6.776;2023-02-01T14:34:02;9.10;1.00
19868;DHT22;10096;51.112;6.776;2023-02-01T14:36:40;9.00;1.00
19868;DHT22;10096;51.112;6.776;2023-02-01T14:39:26;9.00;1.00
19868;DHT22;10096;51.112;6.776;2023-02-01T14:41:57;9.10;1.00
19868;DHT22;10096;51.112;6.776;2023-02-01T14:44:28;9.10;1.00
19868;DHT22;10096;51.112;6.776;2023-02-01T14:50:11;9.00;1.00
19868;DHT22;10096;51.112;6.776;2023-02-01T14:52:41;9.00;1.00
19868;DHT22;10096;51.112;6.776;2023-02-01T14:55:15;9.00;1.00
19868;DHT22;10096;51.112;6.776;2023-02-01T14:57:46;9.00;1.00
19868;DHT22;10096;51.112;6.776;2023-02-01T15:00:20;9.00;1.00
19868;DHT22;10096;51.112;6.776;2023-02-01T15:02:48;9.10;1.00
19868;DHT22;10096;51.112;6.776;2023-02-01T15:05:28;9.30;1.00
19868;DHT22;10096;51.112;6.776;2023-02-01T15:08:05;9.10;1.00
19868;DHT22;10096;51.112;6.776;2023-02-01T15:10:43;9.10;1.00
19868;DHT22;10096;51.112;6.776;2023-02-01T15:13:18;9.20;1.00
19868;DHT22;10096;51.112;6.776;2023-02-01T15:16:03;9.40;1.00
19868;DHT22;10096;51.112;6.776;2023-02-01T15:18:31;9.10;1.00
19868;DHT22;10096;51.112;6.776;2023-02-01T15:21:01;9.00;1.00
19868;DHT22;10096;51.112;6.776;2023-02-01T15:23:29;9.10;1.00
19868;DHT22;10096;51.112;6.776;2023-02-01T15:26:00;9.20;1.00
19868;DHT22;10096;51.112;6.776;2023-02-01T15:28:28;9.00;1.00
19868;DHT22;10096;51.112;6.776;2023-02-01T15:30:58;9.10;1.00
19868;DHT22;10096;51.112;6.776;2023-02-01T15:33:28;9.20;1.00
19868;DHT22;10096;51.112;6.776;2023-02-01T15:35:56;9.10;1.00
19868;DHT22;10096;51.112;6.776;2023-02-01T15:38:41;9.10;1.00
19868;DHT22;10096;51.112;6.776;2023-02-01T15:41:13;9.00;1.00
19868;DHT22;10096;51.112;6.776;2023-02-01T15:43:47;9.00;1.00
19868;DHT22;10096;51.112;6.776;2023-02-01T15:46:18;9.00;1.00
19868;DHT22;10096;51.112;6.776;2023-02-01T15:48:49;9.10;1.00
19868;DHT22;10096;51.112;6.776;2023-02-01T15:51:19;9.10;1.00
19868;DHT22;10096;51.112;6.776;2023-02-01T15:53:51;9.00;1.00
19868;DHT22;10096;51.112;6.776;2023-02-01T15:56:27;9.00;1.00
19868;DHT22;10096;51.112;6.776;2023-02-01T15:59:00;8.70;1.00
19868;DHT22;10096;51.112;6.776;2023-02-01T16:01:29;9.00;1.00
19868;DHT22;10096;51.112;6.776;2023-02-01T16:04:16;9.20;1.00
19868;DHT22;10096;51.112;6.776;2023-02-01T16:06:51;9.10;1.00
19868;DHT22;10096;51.112;6.776;2023-02-01T16:09:22;9.00;1.00
19868;DHT22;10096;51.112;6.776;2023-02-01T16:11:56;9.00;1.00
19868;DHT22;10096;51.112;6.776;2023-02-01T16:14:24;9.00;1.00
19868;DHT22;10096;51.112;6.776;2023-02-01T16:16:53;9.30;1.00
19868;DHT22;10096;51.112;6.776;2023-02-01T16:19:20;9.20;1.00
19868;DHT22;10096;51.112;6.776;2023-02-01T16:21:50;9.30;1.00
19868;DHT22;10096;51.112;6.776;2023-02-01T16:24:17;9.10;1.00
19868;DHT22;10096;51.112;6.776;2023-02-01T16:26:44;9.20;1.00
19868;DHT22;10096;51.112;6.776;2023-02-01T16:29:13;9.00;1.00
19868;DHT22;10096;51.112;6.776;2023-02-01T16:31:41;9.00;1.00
19868;DHT22;10096;51.112;6.776;2023-02-01T16:34:13;9.20;1.00
19868;DHT22;10096;51.112;6.776;2023-02-01T16:36:42;9.10;1.00
19868;DHT22;10096;51.112;6.776;2023-02-01T16:39:14;9.30;1.00
19868;DHT22;10096;51.112;6.776;2023-02-01T16:41:41;9.10;1.00
19868;DHT22;10096;51.112;6.776;2023-02-01T16:44:08;9.30;1.00
19868;DHT22;10096;51.112;6.776;2023-02-01T16:46:40;9.10;1.00
19868;DHT22;10096;51.112;6.776;2023-02-01T16:49:20;9.00;1.00
19868;DHT22;10096;51.112;6.776;2023-02-01T16:51:48;9.00;1.00
19868;DHT22;10096;51.112;6.776;2023-02-01T16:54:18;8.90;1.00
19868;DHT22;10096;51.112;6.776;2023-02-01T16:56:47;8.90;1.00
19868;DHT22;10096;51.112;6.776;2023-02-01T16:59:15;8.90;1.00
19868;DHT22;10096;51.112;6.776;2023-02-01T17:01:43;8.90;1.00
19868;DHT22;10096;51.112;6.776;2023-02-01T17:04:11;8.70;1.00